Time;durP1;ratioP1;P1;durP2;ratioP2;P2;SDS_P1;SDS_P2;PMS_P1;PMS_P2;Temp;Humidity;BMP_temperature;BMP_pressure;BME280_temperature;BME280_humidity;BME280_pressure;Samples;Min_cycle;Max_cycle;Signal;HPM_P1;HPM_P2
2023/09/11 00:01:48;;;;;;;5.85;4.85;;;;;;;;;;5025014;28;20044;-74
2023/09/11 00:04:13;;;;;;;7.57;5.53;;;;;;;;;;5023337;28;20035;-74
2023/09/11 00:06:39;;;;;;;6.30;4.95;;;;;;;;;;5029326;28;20540;-73
2023/09/11 00:09:04;;;;;;;7.65;5.00;;;;;;;;;;5026616;28;20067;-74
2023/09/11 00:11:30;;;;;;;7.55;5.60;;;;;;;;;;5027512;28;20041;-74
2023/09/11 00:13:55;;;;;;;8.35;5.63;;;;;;;;;;5004329;28;20037;-74
2023/09/11 00:16:20;;;;;;;6.15;5.55;;;;;;;;;;5020248;28;20600;-73
2023/09/11 00:18:46;;;;;;;5.95;5.35;;;;;;;;;;5012287;28;20044;-74
2023/09/11 00:21:12;;;;;;;6.28;5.20;;;;;;;;;;5025546;28;20490;-74
2023/09/11 00:23:37;;;;;;;8.13;5.80;;;;;;;;;;5024476;28;20070;-74
2023/09/11 00:26:02;;;;;;;5.80;5.18;;;;;;;;;;5025883;28;20051;-74
2023/09/11 00:28:28;;;;;;;7.63;5.20;;;;;;;;;;4987161;28;20079;-74
2023/09/11 00:31:00;;;;;;;7.22;5.35;;;;;;;;;;5024251;28;20426;-74
2023/09/11 00:33:26;;;;;;;4.40;4.00;;;;;;;;;;5021232;28;20048;-74
2023/09/11 00:35:51;;;;;;;6.30;5.28;;;;;;;;;;5023335;28;20056;-74
2023/09/11 00:38:17;;;;;;;4.93;4.45;;;;;;;;;;5024255;28;20056;-74
2023/09/11 00:40:42;;;;;;;5.90;4.65;;;;;;;;;;5023088;28;20041;-74
2023/09/11 00:43:08;;;;;;;5.75;4.90;;;;;;;;;;4987424;28;20051;-73
2023/09/11 00:45:35;;;;;;;5.40;4.90;;;;;;;;;;5006879;28;20097;-73
2023/09/11 00:48:00;;;;;;;6.03;4.93;;;;;;;;;;5016231;28;20065;-74
2023/09/11 00:50:26;;;;;;;7.20;4.85;;;;;;;;;;5014512;28;20045;-74
2023/09/11 00:52:52;;;;;;;6.43;5.30;;;;;;;;;;5023351;28;20144;-74
2023/09/11 00:55:19;;;;;;;5.28;4.72;;;;;;;;;;5009112;28;20057;-74
2023/09/11 00:57:45;;;;;;;7.07;5.03;;;;;;;;;;4976408;28;20573;-74
2023/09/11 01:00:12;;;;;;;5.75;4.78;;;;;;;;;;5023790;28;20061;-74
2023/09/11 01:02:37;;;;;;;5.97;4.95;;;;;;;;;;5001912;28;20076;-74
2023/09/11 01:05:07;;;;;;;5.75;5.15;;;;;;;;;;5020962;28;20096;-74
2023/09/11 01:07:33;;;;;;;5.13;4.63;;;;;;;;;;5010966;28;20045;-74
2023/09/11 01:09:59;;;;;;;5.45;4.95;;;;;;;;;;5005780;28;20068;-74
2023/09/11 01:12:25;;;;;;;5.03;4.53;;;;;;;;;;5019476;28;20057;-74
2023/09/11 01:14:51;;;;;;;5.68;5.18;;;;;;;;;;5027204;28;20231;-73
2023/09/11 01:17:52;;;;;;;5.60;4.95;;;;;;;;;;5030002;28;20053;-74
2023/09/11 01:20:38;;;;;;;6.43;5.70;;;;;;;;;;5019609;28;20040;-74
2023/09/11 01:23:22;;;;;;;7.10;5.68;;;;;;;;;;5018400;28;20120;-74
2023/09/11 01:26:20;;;;;;;5.68;5.15;;;;;;;;;;4995447;28;20619;-74
2023/09/11 01:29:20;;;;;;;6.30;4.78;;;;;;;;;;5042384;28;20048;-74
2023/09/11 01:31:47;;;;;;;5.70;5.20;;;;;;;;;;5002060;28;20041;-73
2023/09/11 01:34:13;;;;;;;6.43;5.72;;;;;;;;;;5035929;28;20047;-73
2023/09/11 01:36:38;;;;;;;5.72;5.18;;;;;;;;;;5044509;28;20140;-74
2023/09/11 01:39:04;;;;;;;5.47;4.97;;;;;;;;;;5052149;28;20119;-74
2023/09/11 01:41:36;;;;;;;4.78;4.30;;;;;;;;;;5021371;28;20075;-73
2023/09/11 01:44:13;;;;;;;4.70;4.30;;;;;;;;;;5027228;28;20037;-73
2023/09/11 01:46:38;;;;;;;6.25;5.00;;;;;;;;;;5010178;28;20740;-74
2023/09/11 01:49:05;;;;;;;5.63;5.13;;;;;;;;;;5031888;28;20064;-73
2023/09/11 01:51:31;;;;;;;5.05;4.55;;;;;;;;;;5027944;28;20051;-73
2023/09/11 01:53:58;;;;;;;7.18;5.03;;;;;;;;;;5030232;28;20040;-73
2023/09/11 01:56:23;;;;;;;6.82;5.60;;;;;;;;;;5031759;28;20041;-74
2023/09/11 01:58:48;;;;;;;6.63;5.32;;;;;;;;;;5000412;28;20087;-74
2023/09/11 02:01:14;;;;;;;6.95;5.38;;;;;;;;;;5040145;28;21099;-73
2023/09/11 02:03:40;;;;;;;6.45;5.43;;;;;;;;;;5034136;28;20041;-73
2023/09/11 02:06:06;;;;;;;6.18;5.22;;;;;;;;;;5001057;28;20493;-73
2023/09/11 02:08:32;;;;;;;6.80;5.53;;;;;;;;;;5038599;28;20037;-73
2023/09/11 02:10:57;;;;;;;5.70;5.20;;;;;;;;;;5051319;28;20059;-73
2023/09/11 02:13:23;;;;;;;5.82;5.22;;;;;;;;;;4991643;28;20041;-74
2023/09/11 02:15:48;;;;;;;6.32;5.45;;;;;;;;;;5029346;28;20049;-73
2023/09/11 02:18:13;;;;;;;6.68;5.78;;;;;;;;;;5040562;28;20041;-73
2023/09/11 02:20:39;;;;;;;6.97;5.40;;;;;;;;;;5030645;28;20249;-73
2023/09/11 02:23:04;;;;;;;6.07;5.50;;;;;;;;;;5034127;28;20055;-73
2023/09/11 02:25:29;;;;;;;10.23;5.70;;;;;;;;;;5028249;28;20041;-73
2023/09/11 02:27:55;;;;;;;5.60;5.00;;;;;;;;;;5000686;28;20063;-74
2023/09/11 02:30:20;;;;;;;5.15;4.65;;;;;;;;;;5041564;28;20036;-73
2023/09/11 02:32:46;;;;;;;4.95;4.55;;;;;;;;;;5040856;28;20045;-73
2023/09/11 02:35:11;;;;;;;5.20;4.70;;;;;;;;;;5028527;28;20043;-73
2023/09/11 02:37:36;;;;;;;5.22;4.72;;;;;;;;;;5031758;28;20052;-73
2023/09/11 02:40:03;;;;;;;5.57;4.80;;;;;;;;;;5035474;28;20128;-73
2023/09/11 02:42:28;;;;;;;6.13;5.00;;;;;;;;;;5032924;28;20036;-73
2023/09/11 02:44:53;;;;;;;6.40;5.43;;;;;;;;;;5041018;28;20533;-73
2023/09/11 02:47:19;;;;;;;6.88;5.28;;;;;;;;;;5033637;28;20044;-73
2023/09/11 02:49:44;;;;;;;6.93;4.57;;;;;;;;;;5037149;28;20472;-73
2023/09/11 02:52:09;;;;;;;4.97;4.47;;;;;;;;;;5045206;28;20141;-73
2023/09/11 02:54:35;;;;;;;6.35;4.95;;;;;;;;;;5045168;28;20098;-73
2023/09/11 02:57:00;;;;;;;5.75;5.18;;;;;;;;;;5016204;28;20041;-74
2023/09/11 02:59:26;;;;;;;6.15;5.07;;;;;;;;;;5053982;28;20040;-73
2023/09/11 03:01:51;;;;;;;6.63;5.50;;;;;;;;;;5046270;28;20076;-74
2023/09/11 03:04:16;;;;;;;5.38;4.88;;;;;;;;;;5031769;28;20036;-73
2023/09/11 03:06:42;;;;;;;7.72;5.60;;;;;;;;;;5051482;28;20693;-73
2023/09/11 03:09:07;;;;;;;5.38;4.88;;;;;;;;;;5043713;28;20048;-73
2023/09/11 03:11:33;;;;;;;5.15;4.47;;;;;;;;;;5034969;28;20052;-73
2023/09/11 03:13:58;;;;;;;5.50;4.82;;;;;;;;;;5043536;28;20066;-73
2023/09/11 03:16:24;;;;;;;5.00;4.50;;;;;;;;;;5032756;28;20056;-73
2023/09/11 03:18:49;;;;;;;6.90;5.25;;;;;;;;;;5048968;28;20537;-72
2023/09/11 03:21:15;;;;;;;4.80;4.35;;;;;;;;;;5049095;28;20044;-72
2023/09/11 03:23:40;;;;;;;5.80;5.25;;;;;;;;;;5045167;28;20062;-73
2023/09/11 03:26:16;;;;;;;5.60;4.78;;;;;;;;;;5029424;28;20400;-73
2023/09/11 03:28:46;;;;;;;4.85;4.45;;;;;;;;;;5046716;28;20079;-72
2023/09/11 03:31:11;;;;;;;5.32;4.72;;;;;;;;;;5047021;28;20044;-73
2023/09/11 03:33:37;;;;;;;5.13;4.47;;;;;;;;;;5051673;28;20039;-72
2023/09/11 03:36:02;;;;;;;5.93;5.15;;;;;;;;;;5049665;28;20047;-73
2023/09/11 03:38:27;;;;;;;5.30;4.80;;;;;;;;;;5034112;28;20040;-73
2023/09/11 03:40:53;;;;;;;5.53;4.70;;;;;;;;;;5012618;28;20054;-73
2023/09/11 03:43:18;;;;;;;6.00;4.88;;;;;;;;;;5047490;28;20032;-73
2023/09/11 03:45:44;;;;;;;6.78;5.15;;;;;;;;;;5032333;28;20106;-73
2023/09/11 03:48:09;;;;;;;5.60;4.57;;;;;;;;;;5048923;28;20066;-73
2023/09/11 03:50:35;;;;;;;5.10;4.60;;;;;;;;;;5046906;28;20848;-73
2023/09/11 03:53:01;;;;;;;5.25;4.65;;;;;;;;;;5032509;28;20044;-73
2023/09/11 03:55:27;;;;;;;5.57;4.95;;;;;;;;;;5027322;28;20045;-73
2023/09/11 03:57:52;;;;;;;7.15;5.25;;;;;;;;;;5047114;28;20496;-73
2023/09/11 04:00:18;;;;;;;5.68;5.07;;;;;;;;;;5039447;28;20155;-73
2023/09/11 04:02:43;;;;;;;5.30;4.80;;;;;;;;;;5041337;28;20039;-73
2023/09/11 04:05:09;;;;;;;5.53;5.03;;;;;;;;;;5034372;28;20095;-73
2023/09/11 04:07:34;;;;;;;5.68;4.93;;;;;;;;;;5030879;28;20064;-73
2023/09/11 04:10:00;;;;;;;6.63;4.13;;;;;;;;;;5023614;28;20039;-73
2023/09/11 04:12:25;;;;;;;4.80;4.35;;;;;;;;;;5037778;28;20040;-73
2023/09/11 04:14:51;;;;;;;5.35;4.20;;;;;;;;;;5022772;28;20044;-73
2023/09/11 04:17:16;;;;;;;7.10;5.88;;;;;;;;;;5002098;28;20126;-73
2023/09/11 04:19:42;;;;;;;5.35;4.85;;;;;;;;;;5008967;28;20119;-73
2023/09/11 04:22:08;;;;;;;5.78;4.68;;;;;;;;;;5019349;28;20118;-74
2023/09/11 04:24:34;;;;;;;4.80;4.30;;;;;;;;;;5019799;28;20112;-73
2023/09/11 04:26:59;;;;;;;5.85;4.90;;;;;;;;;;5033448;28;20159;-73
2023/09/11 04:29:28;;;;;;;5.95;4.50;;;;;;;;;;5047061;28;20501;-73
2023/09/11 04:31:53;;;;;;;5.32;4.82;;;;;;;;;;5045330;28;20052;-73
2023/09/11 04:34:19;;;;;;;4.93;4.40;;;;;;;;;;5044778;28;20028;-72
2023/09/11 04:36:44;;;;;;;5.53;4.63;;;;;;;;;;4975804;28;20545;-73
2023/09/11 04:39:12;;;;;;;4.93;4.40;;;;;;;;;;5038533;28;20033;-72
2023/09/11 04:41:37;;;;;;;5.25;4.70;;;;;;;;;;5032020;28;20040;-73
2023/09/11 04:44:03;;;;;;;5.18;4.68;;;;;;;;;;5045144;28;20145;-72
2023/09/11 04:46:28;;;;;;;6.93;5.15;;;;;;;;;;5057206;28;20039;-72
2023/09/11 04:48:55;;;;;;;6.65;4.97;;;;;;;;;;5012138;28;20576;-73
2023/09/11 04:51:21;;;;;;;5.00;4.50;;;;;;;;;;5019810;28;20044;-73
2023/09/11 04:53:46;;;;;;;5.00;4.60;;;;;;;;;;5040921;28;20036;-73
2023/09/11 04:56:11;;;;;;;7.68;5.47;;;;;;;;;;5024570;28;20075;-72
2023/09/11 04:58:37;;;;;;;5.30;4.80;;;;;;;;;;5037391;28;20075;-73
2023/09/11 05:01:05;;;;;;;6.97;4.88;;;;;;;;;;5031432;28;20428;-73
2023/09/11 05:03:31;;;;;;;6.05;4.75;;;;;;;;;;5033221;28;20408;-72
2023/09/11 05:05:56;;;;;;;5.57;4.93;;;;;;;;;;5027633;28;20039;-73
2023/09/11 05:08:21;;;;;;;6.15;5.20;;;;;;;;;;5021158;28;20130;-73
2023/09/11 05:10:47;;;;;;;5.30;4.80;;;;;;;;;;5014384;28;20044;-72
2023/09/11 05:13:12;;;;;;;5.97;5.43;;;;;;;;;;5028200;28;20152;-71
2023/09/11 05:15:38;;;;;;;6.30;5.30;;;;;;;;;;5012967;28;20095;-71
2023/09/11 05:18:03;;;;;;;5.82;5.32;;;;;;;;;;5037199;28;20095;-74
2023/09/11 05:20:30;;;;;;;5.55;4.45;;;;;;;;;;5028210;28;20044;-72
2023/09/11 05:22:56;;;;;;;7.90;6.03;;;;;;;;;;5013703;28;20036;-70
2023/09/11 05:25:22;;;;;;;6.53;4.78;;;;;;;;;;5032121;28;20411;-71
2023/09/11 05:27:48;;;;;;;6.15;5.55;;;;;;;;;;5033486;28;20048;-71
2023/09/11 05:30:13;;;;;;;9.38;5.43;;;;;;;;;;5052578;28;20049;-71
2023/09/11 05:32:39;;;;;;;7.25;5.90;;;;;;;;;;5014634;28;20426;-71
2023/09/11 05:35:06;;;;;;;8.30;6.05;;;;;;;;;;4974572;28;20045;-71
2023/09/11 05:37:31;;;;;;;10.40;6.68;;;;;;;;;;5005058;28;20061;-71
2023/09/11 05:39:56;;;;;;;13.85;7.55;;;;;;;;;;5018341;28;20040;-71
2023/09/11 05:42:22;;;;;;;8.98;6.20;;;;;;;;;;5019498;28;20756;-71
2023/09/11 05:44:51;;;;;;;11.60;7.57;;;;;;;;;;5005669;28;20053;-71
2023/09/11 05:47:17;;;;;;;8.27;6.70;;;;;;;;;;5009159;28;20040;-71
2023/09/11 05:49:42;;;;;;;8.05;6.78;;;;;;;;;;5004916;28;20053;-72
2023/09/11 05:52:08;;;;;;;8.15;6.60;;;;;;;;;;5025034;28;20413;-72
2023/09/11 05:54:36;;;;;;;10.07;7.05;;;;;;;;;;5026091;28;20075;-71
2023/09/11 05:57:02;;;;;;;10.32;7.57;;;;;;;;;;5025954;28;20056;-71
2023/09/11 05:59:27;;;;;;;8.57;7.70;;;;;;;;;;5034637;28;20048;-71
2023/09/11 06:01:53;;;;;;;12.05;8.77;;;;;;;;;;5057988;28;20032;-72
2023/09/11 06:04:18;;;;;;;11.95;8.57;;;;;;;;;;5048766;28;20092;-72
2023/09/11 06:06:44;;;;;;;10.85;8.45;;;;;;;;;;5055519;28;20040;-72
2023/09/11 06:09:09;;;;;;;13.73;8.48;;;;;;;;;;5065453;28;20032;-71
2023/09/11 06:11:35;;;;;;;13.23;9.23;;;;;;;;;;5049595;28;20040;-72
2023/09/11 06:14:00;;;;;;;13.95;9.23;;;;;;;;;;5041348;28;20127;-71
2023/09/11 06:16:26;;;;;;;11.02;8.23;;;;;;;;;;5033206;28;20112;-72
2023/09/11 06:18:51;;;;;;;12.65;8.80;;;;;;;;;;5047360;28;20038;-72
2023/09/11 06:21:17;;;;;;;11.70;8.30;;;;;;;;;;5056449;28;20090;-72
2023/09/11 06:23:43;;;;;;;12.32;8.73;;;;;;;;;;5074345;28;20032;-72
2023/09/11 06:26:09;;;;;;;10.77;8.38;;;;;;;;;;5061900;28;20039;-72
2023/09/11 06:28:34;;;;;;;11.10;7.72;;;;;;;;;;5052784;28;20859;-71
2023/09/11 06:30:59;;;;;;;11.43;7.97;;;;;;;;;;5030396;28;20134;-72
2023/09/11 06:33:27;;;;;;;10.32;8.43;;;;;;;;;;5050586;28;20115;-72
2023/09/11 06:35:53;;;;;;;7.60;6.50;;;;;;;;;;5062336;28;20114;-72
2023/09/11 06:38:18;;;;;;;14.68;8.60;;;;;;;;;;5064373;28;20048;-72
2023/09/11 06:40:44;;;;;;;12.10;9.18;;;;;;;;;;5056089;28;20081;-72
2023/09/11 06:43:10;;;;;;;10.45;7.80;;;;;;;;;;5042581;28;20053;-71
2023/09/11 06:45:35;;;;;;;11.00;8.23;;;;;;;;;;5014534;28;20199;-72
2023/09/11 06:48:01;;;;;;;11.40;8.40;;;;;;;;;;5040355;28;20114;-72
2023/09/11 06:50:27;;;;;;;10.65;8.25;;;;;;;;;;5065338;28;20028;-72
2023/09/11 06:52:52;;;;;;;8.82;7.57;;;;;;;;;;5057770;28;20045;-72
2023/09/11 06:55:17;;;;;;;10.43;7.80;;;;;;;;;;5065022;28;20028;-72
2023/09/11 06:57:55;;;;;;;10.68;7.78;;;;;;;;;;5051795;28;20029;-72
2023/09/11 07:00:20;;;;;;;12.35;8.05;;;;;;;;;;5040103;28;20442;-72
2023/09/11 07:02:47;;;;;;;8.52;7.28;;;;;;;;;;5040598;28;20052;-72
2023/09/11 07:05:12;;;;;;;10.35;8.00;;;;;;;;;;5060318;28;20029;-72
2023/09/11 07:07:38;;;;;;;11.18;7.82;;;;;;;;;;5060791;28;20041;-72
2023/09/11 07:10:04;;;;;;;10.65;7.22;;;;;;;;;;5056485;28;20708;-72
2023/09/11 07:12:29;;;;;;;7.82;6.70;;;;;;;;;;5043561;28;20045;-71
2023/09/11 07:14:55;;;;;;;7.72;6.95;;;;;;;;;;5036122;28;20045;-72
2023/09/11 07:17:20;;;;;;;10.90;6.85;;;;;;;;;;5046276;28;20597;-72
2023/09/11 07:19:47;;;;;;;10.48;7.00;;;;;;;;;;5042526;28;20037;-72
2023/09/11 07:22:12;;;;;;;12.48;6.93;;;;;;;;;;5032520;28;20044;-72
2023/09/11 07:24:38;;;;;;;9.07;7.38;;;;;;;;;;5033252;28;20049;-72
2023/09/11 07:27:04;;;;;;;10.73;7.15;;;;;;;;;;5028672;28;20021;-72
2023/09/11 07:29:30;;;;;;;7.72;6.93;;;;;;;;;;5020180;28;20127;-72
2023/09/11 07:31:55;;;;;;;10.52;6.78;;;;;;;;;;5017817;28;20033;-72
2023/09/11 07:34:21;;;;;;;8.35;6.72;;;;;;;;;;5006107;28;20037;-72
2023/09/11 07:36:46;;;;;;;10.07;7.00;;;;;;;;;;5020369;28;20555;-72
2023/09/11 07:39:12;;;;;;;9.05;7.05;;;;;;;;;;5027982;28;20047;-72
2023/09/11 07:41:37;;;;;;;8.45;6.97;;;;;;;;;;4999571;28;20067;-72
2023/09/11 07:44:03;;;;;;;9.50;6.20;;;;;;;;;;5020090;28;20087;-72
2023/09/11 07:46:29;;;;;;;6.80;5.88;;;;;;;;;;5013399;28;20065;-72
2023/09/11 07:48:54;;;;;;;9.63;6.95;;;;;;;;;;5012810;28;20474;-72
2023/09/11 07:51:20;;;;;;;8.45;6.60;;;;;;;;;;5014763;28;20049;-72
2023/09/11 07:53:45;;;;;;;10.20;7.65;;;;;;;;;;5021373;28;20488;-72
2023/09/11 07:56:12;;;;;;;9.70;5.80;;;;;;;;;;5005619;28;20028;-72
2023/09/11 07:58:38;;;;;;;8.98;7.55;;;;;;;;;;5011288;28;20045;-72
2023/09/11 08:01:04;;;;;;;13.57;8.07;;;;;;;;;;5024780;28;20095;-72
2023/09/11 08:03:32;;;;;;;10.02;7.93;;;;;;;;;;5026570;28;20037;-72
2023/09/11 08:05:59;;;;;;;6.78;6.07;;;;;;;;;;5038901;28;20112;-72
2023/09/11 08:08:25;;;;;;;10.57;7.55;;;;;;;;;;5057873;28;20259;-72
2023/09/11 08:10:51;;;;;;;8.40;6.97;;;;;;;;;;5030035;28;20039;-72
2023/09/11 08:13:16;;;;;;;11.32;7.55;;;;;;;;;;5059683;28;20082;-72
2023/09/11 08:15:41;;;;;;;9.15;7.07;;;;;;;;;;5058119;28;20131;-72
2023/09/11 08:18:07;;;;;;;8.63;6.57;;;;;;;;;;5038728;28;20040;-72
2023/09/11 08:20:32;;;;;;;7.55;6.18;;;;;;;;;;5058638;28;20098;-72
2023/09/11 08:22:58;;;;;;;10.63;6.55;;;;;;;;;;5032286;28;20044;-72
2023/09/11 08:25:23;;;;;;;9.35;6.95;;;;;;;;;;5022662;28;20041;-72
2023/09/11 08:27:49;;;;;;;10.20;7.40;;;;;;;;;;5017525;28;20091;-72
2023/09/11 08:30:14;;;;;;;12.98;7.53;;;;;;;;;;5023712;28;20033;-72
2023/09/11 08:32:40;;;;;;;7.20;6.00;;;;;;;;;;5017573;28;20065;-72
2023/09/11 08:35:06;;;;;;;8.80;6.50;;;;;;;;;;5022305;28;20574;-72
2023/09/11 08:37:31;;;;;;;8.65;7.10;;;;;;;;;;5009977;28;20042;-72
2023/09/11 08:39:56;;;;;;;8.02;6.03;;;;;;;;;;5014124;28;20124;-72
2023/09/11 08:42:23;;;;;;;6.63;5.95;;;;;;;;;;5019260;28;20041;-72
2023/09/11 08:44:49;;;;;;;6.90;5.28;;;;;;;;;;5015945;28;20042;-72
2023/09/11 08:47:15;;;;;;;9.70;6.65;;;;;;;;;;5018929;28;20124;-72
2023/09/11 08:49:49;;;;;;;10.20;6.75;;;;;;;;;;5006749;28;20037;-72
2023/09/11 08:52:16;;;;;;;7.65;6.07;;;;;;;;;;5007682;28;20040;-72
2023/09/11 08:54:43;;;;;;;8.40;6.28;;;;;;;;;;5019953;28;20056;-72
2023/09/11 08:57:14;;;;;;;12.10;6.65;;;;;;;;;;5021213;28;20687;-72
2023/09/11 08:59:44;;;;;;;11.35;6.60;;;;;;;;;;5014895;28;20422;-72
2023/09/11 09:02:11;;;;;;;8.40;6.53;;;;;;;;;;5016433;28;20048;-72
2023/09/11 09:04:38;;;;;;;9.43;6.05;;;;;;;;;;5018420;28;20033;-72
2023/09/11 09:07:06;;;;;;;9.15;6.60;;;;;;;;;;5017060;28;20619;-72
2023/09/11 09:09:32;;;;;;;13.88;6.60;;;;;;;;;;5027306;28;20037;-72
2023/09/11 09:11:58;;;;;;;8.43;5.82;;;;;;;;;;5025779;28;20371;-72
2023/09/11 09:14:27;;;;;;;10.93;7.00;;;;;;;;;;5000816;28;20034;-72
2023/09/11 09:16:52;;;;;;;13.93;6.82;;;;;;;;;;5019143;28;20190;-72
2023/09/11 09:19:18;;;;;;;9.00;6.20;;;;;;;;;;5006601;28;20061;-73
2023/09/11 09:22:05;;;;;;;11.68;6.78;;;;;;;;;;5013501;28;20038;-73
2023/09/11 09:24:31;;;;;;;10.18;6.03;;;;;;;;;;5017573;28;20115;-72
2023/09/11 09:26:57;;;;;;;7.57;5.53;;;;;;;;;;5031900;28;20037;-72
2023/09/11 09:29:23;;;;;;;17.25;6.80;;;;;;;;;;5018702;28;20036;-72
2023/09/11 09:31:48;;;;;;;7.50;5.78;;;;;;;;;;5001486;28;20411;-72
2023/09/11 09:34:14;;;;;;;13.73;6.90;;;;;;;;;;5019996;28;20572;-73
2023/09/11 09:36:53;;;;;;;14.75;7.60;;;;;;;;;;5021878;28;20736;-72
2023/09/11 09:39:19;;;;;;;7.38;5.13;;;;;;;;;;5027823;28;20033;-72
2023/09/11 09:41:53;;;;;;;11.60;6.07;;;;;;;;;;5031617;28;20045;-72
2023/09/11 09:44:31;;;;;;;6.25;5.05;;;;;;;;;;5005286;28;20029;-74
2023/09/11 09:47:05;;;;;;;10.55;6.13;;;;;;;;;;5019432;28;20403;-74
2023/09/11 09:49:41;;;;;;;9.32;6.10;;;;;;;;;;5022487;28;20041;-74
2023/09/11 09:52:06;;;;;;;15.23;5.20;;;;;;;;;;5028769;28;20029;-74
2023/09/11 09:54:59;;;;;;;12.88;5.82;;;;;;;;;;5030576;28;20401;-74
2023/09/11 09:57:26;;;;;;;10.85;4.32;;;;;;;;;;5022115;28;20045;-74
2023/09/11 09:59:57;;;;;;;12.90;4.43;;;;;;;;;;5021236;28;20076;-74
2023/09/11 10:02:33;;;;;;;9.75;4.30;;;;;;;;;;5026100;28;20045;-74
2023/09/11 10:05:08;;;;;;;6.68;4.38;;;;;;;;;;5022119;28;20386;-74
2023/09/11 10:07:42;;;;;;;7.50;4.40;;;;;;;;;;5019868;28;20045;-74
2023/09/11 10:10:30;;;;;;;4.35;3.95;;;;;;;;;;5028234;28;20041;-74
2023/09/11 10:13:09;;;;;;;4.80;3.88;;;;;;;;;;5024030;28;20038;-74
2023/09/11 10:15:36;;;;;;;10.68;4.03;;;;;;;;;;5034755;28;20278;-74
2023/09/11 10:18:02;;;;;;;5.75;3.90;;;;;;;;;;5056669;28;20032;-74
2023/09/11 10:20:28;;;;;;;8.60;3.97;;;;;;;;;;5075154;28;20036;-74
2023/09/11 10:22:56;;;;;;;9.45;4.15;;;;;;;;;;5066578;28;20052;-74
2023/09/11 10:25:22;;;;;;;7.28;4.05;;;;;;;;;;5063772;28;20039;-74
2023/09/11 10:27:57;;;;;;;7.70;4.22;;;;;;;;;;5050343;28;20032;-75
2023/09/11 10:30:25;;;;;;;6.90;4.00;;;;;;;;;;5064900;28;20033;-74
2023/09/11 10:33:00;;;;;;;13.88;4.78;;;;;;;;;;5063294;28;20044;-74
2023/09/11 10:35:29;;;;;;;7.55;4.15;;;;;;;;;;5067715;28;20460;-74
2023/09/11 10:37:57;;;;;;;13.18;4.35;;;;;;;;;;5064931;28;20139;-74
2023/09/11 10:40:28;;;;;;;6.93;3.88;;;;;;;;;;5052676;28;20033;-74
2023/09/11 10:42:53;;;;;;;15.23;4.68;;;;;;;;;;5043499;28;20036;-75
2023/09/11 10:45:29;;;;;;;9.02;4.47;;;;;;;;;;5052329;28;20091;-73
2023/09/11 10:47:55;;;;;;;12.70;4.32;;;;;;;;;;5046989;28;20040;-73
2023/09/11 10:50:43;;;;;;;12.48;4.50;;;;;;;;;;5059381;28;20039;-73
2023/09/11 10:53:09;;;;;;;9.60;4.13;;;;;;;;;;5033674;28;20050;-73
2023/09/11 10:55:35;;;;;;;6.53;3.33;;;;;;;;;;5047637;28;20041;-73
2023/09/11 10:58:07;;;;;;;7.90;3.85;;;;;;;;;;5017779;28;20041;-73
2023/09/11 11:00:37;;;;;;;8.57;4.35;;;;;;;;;;5016478;28;20041;-73
2023/09/11 11:03:04;;;;;;;12.13;4.60;;;;;;;;;;5023987;28;20077;-73
2023/09/11 11:05:31;;;;;;;9.40;4.25;;;;;;;;;;5024142;28;20734;-73
2023/09/11 11:07:57;;;;;;;13.15;4.47;;;;;;;;;;5018005;28;20037;-73
2023/09/11 11:10:22;;;;;;;11.65;4.20;;;;;;;;;;5007971;28;20117;-73
2023/09/11 11:12:48;;;;;;;7.82;3.92;;;;;;;;;;5003996;28;20033;-73
2023/09/11 11:15:24;;;;;;;9.10;4.50;;;;;;;;;;5014701;28;20076;-73
2023/09/11 11:18:23;;;;;;;10.80;4.63;;;;;;;;;;5016629;28;20540;-73
2023/09/11 11:21:00;;;;;;;11.85;4.53;;;;;;;;;;5000979;28;20068;-74
2023/09/11 11:23:50;;;;;;;9.13;4.20;;;;;;;;;;5011379;28;20037;-74
2023/09/11 11:26:16;;;;;;;7.63;3.85;;;;;;;;;;5020311;28;20060;-74
2023/09/11 11:28:43;;;;;;;12.50;4.43;;;;;;;;;;5026866;28;20490;-74
2023/09/11 11:31:14;;;;;;;10.63;3.78;;;;;;;;;;5016114;28;20475;-74
2023/09/11 11:33:40;;;;;;;10.63;4.20;;;;;;;;;;5011165;28;20064;-74
2023/09/11 11:36:09;;;;;;;7.10;3.65;;;;;;;;;;5014143;28;20109;-74
2023/09/11 11:38:35;;;;;;;8.60;4.28;;;;;;;;;;5003428;28;20033;-74
2023/09/11 11:41:02;;;;;;;9.43;3.88;;;;;;;;;;5025851;28;20033;-74
2023/09/11 11:43:28;;;;;;;10.63;4.30;;;;;;;;;;5011444;28;20037;-74
2023/09/11 11:45:55;;;;;;;6.75;3.53;;;;;;;;;;5002948;28;20057;-74
2023/09/11 11:48:21;;;;;;;9.95;3.97;;;;;;;;;;5030715;28;20044;-74
2023/09/11 11:50:47;;;;;;;8.68;4.32;;;;;;;;;;5028215;28;20128;-74
2023/09/11 11:53:18;;;;;;;10.70;4.28;;;;;;;;;;5017443;28;20064;-74
2023/09/11 11:55:44;;;;;;;14.43;3.97;;;;;;;;;;5016134;28;20045;-74
2023/09/11 11:58:12;;;;;;;9.10;3.53;;;;;;;;;;5013042;28;20038;-75
2023/09/11 12:00:38;;;;;;;12.20;4.00;;;;;;;;;;5014258;28;20381;-74
2023/09/11 12:03:06;;;;;;;11.52;4.43;;;;;;;;;;5014763;28;20080;-74
2023/09/11 12:05:32;;;;;;;9.18;4.28;;;;;;;;;;4995106;28;20037;-75
2023/09/11 12:07:58;;;;;;;8.15;3.50;;;;;;;;;;5014316;28;20033;-75
2023/09/11 12:10:24;;;;;;;10.32;3.83;;;;;;;;;;5021925;28;20037;-75
2023/09/11 12:12:49;;;;;;;11.95;4.20;;;;;;;;;;5048999;28;20033;-75
2023/09/11 12:15:15;;;;;;;13.02;3.90;;;;;;;;;;5040605;28;20036;-75
2023/09/11 12:17:48;;;;;;;11.05;4.05;;;;;;;;;;5042729;28;20098;-75
2023/09/11 12:20:19;;;;;;;7.78;3.88;;;;;;;;;;5037364;28;20107;-75
2023/09/11 12:22:46;;;;;;;7.38;3.70;;;;;;;;;;5052949;28;20082;-75
2023/09/11 12:25:13;;;;;;;6.97;3.50;;;;;;;;;;5057511;28;20040;-75
2023/09/11 12:27:39;;;;;;;7.95;3.70;;;;;;;;;;5048799;28;20099;-75
2023/09/11 12:30:06;;;;;;;10.55;3.58;;;;;;;;;;5050994;28;20051;-74
2023/09/11 12:32:32;;;;;;;8.50;4.10;;;;;;;;;;5042355;28;20041;-75
2023/09/11 12:34:59;;;;;;;10.27;3.75;;;;;;;;;;5053495;28;20130;-74
2023/09/11 12:37:24;;;;;;;7.40;3.72;;;;;;;;;;5032007;28;20068;-74
2023/09/11 12:39:50;;;;;;;9.38;4.25;;;;;;;;;;5049995;28;20063;-74
2023/09/11 12:42:15;;;;;;;11.35;3.80;;;;;;;;;;5029123;28;20061;-73
2023/09/11 12:44:41;;;;;;;6.15;3.95;;;;;;;;;;5006290;28;20128;-73
2023/09/11 12:47:08;;;;;;;8.50;3.35;;;;;;;;;;5009904;28;20025;-75
2023/09/11 12:49:34;;;;;;;7.35;3.65;;;;;;;;;;5003845;28;20522;-74
2023/09/11 12:51:59;;;;;;;8.88;3.88;;;;;;;;;;5011379;28;20048;-74
2023/09/11 12:54:25;;;;;;;9.45;4.20;;;;;;;;;;5020628;28;20115;-75
2023/09/11 12:56:50;;;;;;;12.15;3.90;;;;;;;;;;5018342;28;20041;-75
2023/09/11 12:59:16;;;;;;;8.07;3.78;;;;;;;;;;5023035;28;20029;-74
2023/09/11 13:01:41;;;;;;;10.02;3.88;;;;;;;;;;5011474;28;20049;-75
2023/09/11 13:04:07;;;;;;;8.93;3.80;;;;;;;;;;5015926;28;20046;-75
2023/09/11 13:06:33;;;;;;;8.93;3.90;;;;;;;;;;5016053;28;20545;-75
2023/09/11 13:08:58;;;;;;;9.60;3.75;;;;;;;;;;5011309;28;20061;-75
2023/09/11 13:11:24;;;;;;;9.15;4.07;;;;;;;;;;5016249;28;20475;-74
2023/09/11 13:13:49;;;;;;;9.25;3.65;;;;;;;;;;5025128;28;20778;-75
2023/09/11 13:16:15;;;;;;;6.78;3.55;;;;;;;;;;5006519;28;20033;-75
2023/09/11 13:18:40;;;;;;;5.60;3.40;;;;;;;;;;5018670;28;20040;-74
2023/09/11 13:21:06;;;;;;;5.80;3.83;;;;;;;;;;5026663;28;20041;-74
2023/09/11 13:23:31;;;;;;;12.32;4.50;;;;;;;;;;5016420;28;20045;-75
2023/09/11 13:25:57;;;;;;;7.75;3.58;;;;;;;;;;5019904;28;20029;-75
2023/09/11 13:28:22;;;;;;;8.05;4.07;;;;;;;;;;5035344;28;20040;-74
2023/09/11 13:30:48;;;;;;;8.77;3.67;;;;;;;;;;5016852;28;20090;-74
2023/09/11 13:33:14;;;;;;;6.97;3.88;;;;;;;;;;5013976;28;20061;-73
2023/09/11 13:35:39;;;;;;;8.35;3.60;;;;;;;;;;5016056;28;20045;-74
2023/09/11 13:38:05;;;;;;;8.82;3.38;;;;;;;;;;5032580;28;20040;-74
2023/09/11 13:40:31;;;;;;;6.43;4.18;;;;;;;;;;5031610;28;20052;-74
2023/09/11 13:42:56;;;;;;;7.85;3.22;;;;;;;;;;5021089;28;20033;-73
2023/09/11 13:45:22;;;;;;;5.95;3.72;;;;;;;;;;5003753;28;20090;-74
2023/09/11 13:47:49;;;;;;;7.90;4.38;;;;;;;;;;5015490;28;20477;-74
2023/09/11 13:50:14;;;;;;;4.07;2.92;;;;;;;;;;5019122;28;20037;-73
2023/09/11 13:52:40;;;;;;;4.35;2.92;;;;;;;;;;5022648;28;20047;-73
2023/09/11 13:55:06;;;;;;;8.65;3.90;;;;;;;;;;5021634;28;20739;-75
2023/09/11 13:57:32;;;;;;;4.40;3.03;;;;;;;;;;5002737;28;20041;-72
2023/09/11 13:59:57;;;;;;;7.30;3.65;;;;;;;;;;5033644;28;20108;-75
2023/09/11 14:02:22;;;;;;;10.52;4.00;;;;;;;;;;5018755;28;20040;-73
2023/09/11 14:04:48;;;;;;;5.07;3.38;;;;;;;;;;5030482;28;20033;-74
2023/09/11 14:07:14;;;;;;;8.25;3.15;;;;;;;;;;5013355;28;20576;-74
2023/09/11 14:09:39;;;;;;;10.90;3.78;;;;;;;;;;5034471;28;20437;-74
2023/09/11 14:12:05;;;;;;;8.88;4.10;;;;;;;;;;5010377;28;20037;-74
2023/09/11 14:14:31;;;;;;;7.22;3.65;;;;;;;;;;5019867;28;20041;-74
2023/09/11 14:16:57;;;;;;;7.43;3.75;;;;;;;;;;5015691;28;20045;-73
2023/09/11 14:19:22;;;;;;;7.43;3.85;;;;;;;;;;5013386;28;20033;-75
2023/09/11 14:21:48;;;;;;;4.90;3.35;;;;;;;;;;5018779;28;20041;-75
2023/09/11 14:24:15;;;;;;;6.68;3.83;;;;;;;;;;5023184;28;20033;-72
2023/09/11 14:26:43;;;;;;;14.43;4.30;;;;;;;;;;5002277;28;20046;-74
2023/09/11 14:29:08;;;;;;;5.10;3.33;;;;;;;;;;5020261;28;20029;-73
2023/09/11 14:31:33;;;;;;;8.45;3.80;;;;;;;;;;5028566;28;20577;-74
2023/09/11 14:33:59;;;;;;;5.78;3.58;;;;;;;;;;5001522;28;20033;-74
2023/09/11 14:36:24;;;;;;;6.13;3.53;;;;;;;;;;5016592;28;20083;-74
2023/09/11 14:38:50;;;;;;;12.77;4.28;;;;;;;;;;5021796;28;20037;-73
2023/09/11 14:41:15;;;;;;;7.13;4.22;;;;;;;;;;5030665;28;20040;-73